createdAt,value
2023-03-07T00:02:39.823Z,15.9
2023-03-07T00:08:32.590Z,15.8
2023-03-07T00:13:54.870Z,15.8
2023-03-07T00:19:47.563Z,15.8
2023-03-07T00:25:25.109Z,15.9
2023-03-07T00:31:02.800Z,15.9
2023-03-07T00:36:54.363Z,15.9
2023-03-07T00:42:47.414Z,15.8
2023-03-07T00:48:24.146Z,15.8
2023-03-07T00:54:01.302Z,15.8
2023-03-07T00:59:23.399Z,15.8
2023-03-07T01:05:00.956Z,15.8
2023-03-07T01:10:37.956Z,15.7
2023-03-07T01:16:15.740Z,15.8
2023-03-07T01:21:37.407Z,15.9
2023-03-07T01:27:30.284Z,15.9
2023-03-07T01:33:07.837Z,15.8
2023-03-07T01:39:00.371Z,15.7
2023-03-07T01:44:53.104Z,15.7
2023-03-07T01:50:30.410Z,15.9
2023-03-07T01:55:51.549Z,15.9
2023-03-07T02:01:29.182Z,15.8
2023-03-07T02:07:21.441Z,15.8
2023-03-07T02:12:58.053Z,15.9
2023-03-07T02:18:50.810Z,15.9
2023-03-07T02:24:27.360Z,15.9
2023-03-07T02:30:20.388Z,15.8
2023-03-07T02:36:12.408Z,15.8
2023-03-07T02:41:49.726Z,15.9
2023-03-07T02:47:41.655Z,15.9
2023-03-07T02:53:18.877Z,15.8
2023-03-07T02:58:39.700Z,15.8
2023-03-07T03:04:02.673Z,15.9
2023-03-07T03:09:55.505Z,15.9
2023-03-07T03:15:49.641Z,15.9
2023-03-07T03:21:42.761Z,15.8
2023-03-07T03:27:36.054Z,15.8
2023-03-07T03:33:28.927Z,15.9
2023-03-07T03:39:21.594Z,15.8
2023-03-07T03:45:14.974Z,15.8
2023-03-07T03:51:07.927Z,15.6
2023-03-07T03:57:00.411Z,15.7
2023-03-07T04:02:53.442Z,15.8
2023-03-07T04:08:45.809Z,15.8
2023-03-07T04:14:38.493Z,15.6
2023-03-07T04:20:31.733Z,15.6
2023-03-07T04:26:08.469Z,15.7
2023-03-07T04:31:46.333Z,15.8
2023-03-07T04:37:39.057Z,15.8
2023-03-07T04:43:15.649Z,15.7
2023-03-07T04:48:40.819Z,15.7
2023-03-07T04:54:19.077Z,15.8
2023-03-07T04:59:40.833Z,15.9
2023-03-07T05:05:37.490Z,15.9
2023-03-07T05:11:30.040Z,15.8
2023-03-07T05:17:22.547Z,15.8
2023-03-07T05:23:15.529Z,15.9
2023-03-07T05:29:07.676Z,15.8
2023-03-07T05:34:59.671Z,15.8
2023-03-07T05:40:37.033Z,15.8
2023-03-07T05:46:30.823Z,15.9
2023-03-07T05:52:08.276Z,15.9
2023-03-07T05:58:00.969Z,15.8
2023-03-07T06:03:55.123Z,15.7
2023-03-07T06:09:50.247Z,15.7
2023-03-07T06:15:43.660Z,15.9
2023-03-07T06:21:21.233Z,15.9
2023-03-07T06:27:15.031Z,15.8
2023-03-07T06:33:08.982Z,15.6
2023-03-07T06:38:46.908Z,15.8
2023-03-07T06:44:24.189Z,15.9
2023-03-07T06:50:26.582Z,15.9
2023-03-07T06:56:24.938Z,15.8
2023-03-07T07:02:20.053Z,15.7
2023-03-07T07:08:12.308Z,15.8
2023-03-07T07:13:48.855Z,15.9
2023-03-07T07:19:10.175Z,15.8
2023-03-07T07:25:03.407Z,15.8
2023-03-07T07:30:56.512Z,15.8
2023-03-07T07:36:49.890Z,15.8
2023-03-07T07:42:42.891Z,15.8
2023-03-07T07:48:34.855Z,15.7
2023-03-07T07:54:26.953Z,15.6
2023-03-07T08:00:19.530Z,15.5
2023-03-07T08:06:16.579Z,15.5
2023-03-07T08:12:09.045Z,15.6
2023-03-07T08:18:05.069Z,15.6
2023-03-07T08:23:57.705Z,15.6
2023-03-07T08:30:01.543Z,15.6
2023-03-07T08:35:54.630Z,15.5
2023-03-07T08:41:32.757Z,15.4
2023-03-07T08:47:25.951Z,15.4
2023-03-07T08:53:19.793Z,15.6
2023-03-07T08:59:12.977Z,15.6
2023-03-07T09:05:06.185Z,15.6
2023-03-07T09:10:59.136Z,15.6
2023-03-07T09:17:00.801Z,15.5
2023-03-07T09:22:56.154Z,15.4
2023-03-07T09:28:48.905Z,15.6
2023-03-07T09:34:26.012Z,15.8
2023-03-07T09:40:21.120Z,15.8
2023-03-07T09:46:13.947Z,15.7
2023-03-07T09:52:01.642Z,15.7
2023-03-07T09:57:54.376Z,15.9
2023-03-07T10:04:03.569Z,15.9
2023-03-07T10:09:58.848Z,15.9
2023-03-07T10:15:36.682Z,15.8
2023-03-07T10:21:16.295Z,15.7
2023-03-07T10:27:08.606Z,15.9
2023-03-07T10:33:01.985Z,15.9
2023-03-07T10:39:21.127Z,15.9
2023-03-07T10:45:14.340Z,15.9
2023-03-07T10:51:39.441Z,15.9
2023-03-07T10:57:20.061Z,15.9
2023-03-07T11:03:13.122Z,15.9
2023-03-07T11:09:13.808Z,15.8
2023-03-07T11:14:52.184Z,15.7
2023-03-07T11:20:22.780Z,15.6
2023-03-07T11:26:15.147Z,15.6
2023-03-07T11:31:53.328Z,15.8
2023-03-07T11:38:00.290Z,15.9
2023-03-07T11:43:52.366Z,15.9
2023-03-07T11:49:31.770Z,15.9
2023-03-07T11:55:23.923Z,15.8
2023-03-07T12:01:16.706Z,15.8
2023-03-07T12:06:54.145Z,15.9
2023-03-07T12:12:47.393Z,16
2023-03-07T12:18:40.552Z,16
2023-03-07T12:24:33.216Z,16
2023-03-07T12:30:12.216Z,16.2
2023-03-07T12:36:07.348Z,16.2
2023-03-07T12:41:45.309Z,16.1
2023-03-07T12:47:08.584Z,16.1
2023-03-07T12:53:08.694Z,16.3
2023-03-07T12:58:45.601Z,16.3
2023-03-07T13:04:23.725Z,16.3
2023-03-07T13:10:16.790Z,16.2
2023-03-07T13:16:10.940Z,16.3
2023-03-07T13:22:04.227Z,16.3
2023-03-07T13:27:41.480Z,16.2
2023-03-07T13:33:35.224Z,16.2
2023-03-07T13:39:12.787Z,16.1
2023-03-07T13:45:08.319Z,15.9
2023-03-07T13:51:00.211Z,15.8
2023-03-07T13:56:52.833Z,15.8
2023-03-07T14:02:48.714Z,15.6
2023-03-07T14:08:48.625Z,15.6
2023-03-07T14:14:48.410Z,15.5
2023-03-07T14:20:41.646Z,15.4
2023-03-07T14:26:34.566Z,15.4
2023-03-07T14:32:13.260Z,15.3
2023-03-07T14:38:08.712Z,15.3
2023-03-07T14:44:01.247Z,15.2
2023-03-07T14:49:54.399Z,15.1
2023-03-07T14:55:56.426Z,15.1
2023-03-07T15:01:58.737Z,15.1
2023-03-07T15:07:52.691Z,15
2023-03-07T15:13:46.968Z,15
2023-03-07T15:19:09.574Z,14.9
2023-03-07T15:25:03.126Z,14.9
2023-03-07T15:30:40.164Z,14.8
2023-03-07T15:36:32.684Z,14.8
2023-03-07T15:42:11.000Z,14.8
2023-03-07T15:47:48.408Z,14.8
2023-03-07T15:53:41.436Z,14.7
2023-03-07T15:59:33.961Z,14.7
2023-03-07T16:05:12.395Z,14.6
2023-03-07T16:10:18.316Z,14.6
2023-03-07T16:15:55.620Z,14.6
2023-03-07T16:21:48.086Z,14.6
2023-03-07T16:27:27.095Z,14.6
2023-03-07T16:33:20.210Z,14.5
2023-03-07T16:38:27.172Z,14.5
2023-03-07T16:44:20.255Z,14.5
2023-03-07T16:50:13.250Z,14.4
2023-03-07T16:55:58.591Z,14.4
2023-03-07T17:01:52.212Z,14.4
2023-03-07T17:07:37.321Z,14.4
2023-03-07T17:13:30.588Z,14.4
2023-03-07T17:19:23.195Z,14.4
2023-03-07T17:25:16.280Z,14.4
2023-03-07T17:31:09.414Z,14.3
2023-03-07T17:37:02.376Z,14.4
2023-03-07T17:42:55.314Z,14.3
2023-03-07T17:48:48.454Z,14.3
2023-03-07T17:54:41.464Z,14.3
2023-03-07T18:00:37.164Z,14.3
2023-03-07T18:06:30.649Z,14.3
2023-03-07T18:12:36.570Z,14.3
2023-03-07T18:18:21.214Z,14.3
2023-03-07T18:24:09.762Z,14.3
2023-03-07T18:29:49.547Z,14.3
2023-03-07T18:35:43.159Z,14.3
2023-03-07T18:41:36.987Z,14.3
2023-03-07T18:47:29.902Z,14.2
2023-03-07T18:53:23.064Z,14.2
2023-03-07T18:59:00.905Z,14.2
2023-03-07T19:04:54.153Z,14.2
2023-03-07T19:10:34.218Z,14.2
2023-03-07T19:16:12.318Z,14.1
2023-03-07T19:22:04.172Z,14.1
2023-03-07T19:27:57.013Z,14.1
2023-03-07T19:33:34.707Z,14.2
2023-03-07T19:39:13.106Z,14.1
2023-03-07T19:45:05.430Z,14.1
2023-03-07T19:50:58.927Z,14.1
2023-03-07T19:56:50.949Z,14.1
2023-03-07T20:02:44.037Z,14.1
2023-03-07T20:08:36.719Z,14.1
2023-03-07T20:14:45.799Z,14.4
2023-03-07T20:20:38.658Z,14.9
2023-03-07T20:26:16.670Z,15.3
2023-03-07T20:32:09.797Z,15.5
2023-03-07T20:38:04.053Z,15.7
2023-03-07T20:43:57.120Z,15.8
2023-03-07T20:49:51.293Z,15.9
2023-03-07T20:55:44.656Z,15.9
2023-03-07T21:01:38.008Z,15.9
2023-03-07T21:07:14.991Z,15.9
2023-03-07T21:12:40.133Z,15.8
2023-03-07T21:18:17.197Z,15.7
2023-03-07T21:23:39.563Z,15.8
2023-03-07T21:29:31.940Z,15.9
2023-03-07T21:35:09.321Z,16
2023-03-07T21:40:30.906Z,16
2023-03-07T21:46:23.596Z,15.9
2023-03-07T21:52:16.506Z,15.9
2023-03-07T21:58:08.343Z,15.8
2023-03-07T22:03:45.420Z,15.8
2023-03-07T22:09:22.145Z,15.9
2023-03-07T22:14:59.473Z,16
2023-03-07T22:20:36.993Z,16
2023-03-07T22:26:14.968Z,16.1
2023-03-07T22:31:37.350Z,16.2
2023-03-07T22:37:14.549Z,16.2
2023-03-07T22:42:36.171Z,16.2
2023-03-07T22:48:13.019Z,16.3
2023-03-07T22:53:19.144Z,16.4
2023-03-07T22:59:12.235Z,16.3
2023-03-07T23:04:49.984Z,16.3
2023-03-07T23:10:42.634Z,16.3
2023-03-07T23:16:20.843Z,16.4
2023-03-07T23:22:01.771Z,16.4
2023-03-07T23:27:55.269Z,16.3
2023-03-07T23:33:48.695Z,16.3
2023-03-07T23:39:42.110Z,16.3
2023-03-07T23:45:38.619Z,16.4
2023-03-07T23:51:00.171Z,16.3
2023-03-07T23:56:37.662Z,16.2
